Time;durP1;ratioP1;P1;durP2;ratioP2;P2;SDS_P1;SDS_P2;PMS_P1;PMS_P2;Temp;Humidity;BMP_temperature;BMP_pressure;BME280_temperature;BME280_humidity;BME280_pressure;Samples;Min_cycle;Max_cycle;Signal;HPM_P1;HPM_P2
2024/02/18 00:01:46;;;;;;;13.90;7.60;;;;;10.10;100231.00;;;;4844552;29;20120;-69
2024/02/18 00:04:13;;;;;;;10.75;6.88;;;;;9.90;100226.00;;;;4843033;29;20464;-67
2024/02/18 00:06:40;;;;;;;7.85;6.72;;;;;9.90;100222.00;;;;4844518;29;20102;-67
2024/02/18 00:09:07;;;;;;;9.82;6.93;;;;;10.00;100232.00;;;;4846596;29;20049;-69
2024/02/18 00:11:34;;;;;;;9.68;6.35;;;;;10.00;100225.00;;;;4844075;29;20054;-67
2024/02/18 00:14:00;;;;;;;9.75;7.10;;;;;10.00;100223.00;;;;4842945;29;20061;-68
2024/02/18 00:16:27;;;;;;;13.05;6.55;;;;;10.00;100215.00;;;;4843003;29;20500;-67
2024/02/18 00:18:53;;;;;;;11.52;7.18;;;;;9.80;100221.00;;;;4844031;29;20077;-66
2024/02/18 00:21:21;;;;;;;8.95;6.47;;;;;9.70;100219.00;;;;4842813;29;20046;-67
2024/02/18 00:23:48;;;;;;;17.05;7.18;;;;;9.40;100214.00;;;;4844491;29;20496;-67
2024/02/18 00:26:14;;;;;;;8.85;6.78;;;;;9.30;100212.00;;;;4858506;29;20046;-67
2024/02/18 00:28:42;;;;;;;9.35;7.10;;;;;9.40;100215.00;;;;4844374;29;20046;-67
2024/02/18 00:31:09;;;;;;;7.57;6.10;;;;;9.50;100208.00;;;;4842754;29;20137;-68
2024/02/18 00:33:36;;;;;;;12.35;7.15;;;;;9.50;100208.00;;;;4843550;29;20089;-68
2024/02/18 00:36:03;;;;;;;7.43;6.20;;;;;9.50;100205.00;;;;4844153;29;20046;-67
2024/02/18 00:38:29;;;;;;;9.98;6.88;;;;;9.60;100206.00;;;;4846242;29;20144;-68
2024/02/18 00:40:56;;;;;;;9.90;7.38;;;;;9.60;100200.00;;;;4843744;29;20543;-69
2024/02/18 00:43:24;;;;;;;11.05;7.10;;;;;9.60;100197.00;;;;4843831;29;20141;-67
2024/02/18 00:45:50;;;;;;;12.05;8.00;;;;;9.50;100188.00;;;;4842528;29;20054;-67
2024/02/18 00:48:17;;;;;;;11.15;7.65;;;;;9.40;100196.00;;;;4842255;29;20145;-69
2024/02/18 00:50:44;;;;;;;13.98;11.45;;;;;9.10;100189.00;;;;4842507;29;20500;-67
2024/02/18 00:53:11;;;;;;;12.00;10.18;;;;;8.90;100181.00;;;;4843939;29;20148;-67
2024/02/18 00:55:42;;;;;;;11.43;9.73;;;;;8.80;100192.00;;;;4844079;29;20053;-67
2024/02/18 00:58:10;;;;;;;13.23;10.45;;;;;8.90;100187.00;;;;4843970;29;20072;-68
2024/02/18 01:00:38;;;;;;;11.63;7.85;;;;;8.90;100182.00;;;;4843803;29;20053;-69
2024/02/18 01:03:08;;;;;;;11.93;8.43;;;;;8.90;100192.00;;;;4842448;29;20049;-67
2024/02/18 01:05:34;;;;;;;9.35;7.97;;;;;8.80;100182.00;;;;4842115;29;20089;-67
2024/02/18 01:08:02;;;;;;;11.32;6.88;;;;;8.80;100186.00;;;;4843227;29;20492;-68
2024/02/18 01:10:28;;;;;;;13.90;8.38;;;;;8.80;100187.00;;;;4842807;29;20046;-67
2024/02/18 01:12:55;;;;;;;12.43;7.10;;;;;8.80;100188.00;;;;4843183;29;20123;-67
2024/02/18 01:15:22;;;;;;;10.15;6.57;;;;;8.80;100180.00;;;;4843233;29;20499;-68
2024/02/18 01:17:48;;;;;;;10.75;6.60;;;;;8.90;100186.00;;;;4857304;29;20572;-68
2024/02/18 01:20:15;;;;;;;9.43;7.40;;;;;8.90;100185.00;;;;4841505;29;20496;-68
2024/02/18 01:22:42;;;;;;;16.08;6.95;;;;;8.90;100188.00;;;;4843128;29;20507;-68
2024/02/18 01:25:09;;;;;;;10.82;7.20;;;;;8.70;100187.00;;;;4843103;29;20049;-68
2024/02/18 01:27:35;;;;;;;11.57;7.32;;;;;8.60;100181.00;;;;4826624;29;20465;-68
2024/02/18 01:30:02;;;;;;;8.38;6.47;;;;;8.60;100175.00;;;;4841149;29;20046;-68
2024/02/18 01:32:29;;;;;;;11.15;7.28;;;;;8.60;100178.00;;;;4841263;29;20087;-67
2024/02/18 01:34:56;;;;;;;11.32;7.97;;;;;8.60;100168.00;;;;4841604;29;20511;-68
2024/02/18 01:37:22;;;;;;;12.75;7.63;;;;;8.60;100176.00;;;;4842814;29;20053;-68
2024/02/18 01:39:49;;;;;;;13.27;7.50;;;;;8.60;100166.00;;;;4842501;29;20048;-67
2024/02/18 01:42:16;;;;;;;10.60;6.95;;;;;8.60;100167.00;;;;4841628;29;20056;-66
2024/02/18 01:44:42;;;;;;;10.77;7.43;;;;;8.70;100178.00;;;;4841376;29;20058;-67
2024/02/18 01:47:09;;;;;;;8.40;6.95;;;;;8.70;100176.00;;;;4842653;29;20559;-67
2024/02/18 01:49:36;;;;;;;14.57;7.13;;;;;8.70;100176.00;;;;4841325;29;20083;-67
2024/02/18 01:52:03;;;;;;;13.68;7.28;;;;;8.60;100187.00;;;;4842395;29;20058;-67
2024/02/18 01:54:33;;;;;;;8.48;7.13;;;;;8.60;100174.00;;;;4843610;29;20053;-67
2024/02/18 01:57:06;;;;;;;11.88;7.85;;;;;8.60;100177.00;;;;4841753;29;20115;-66
2024/02/18 01:59:34;;;;;;;11.68;7.35;;;;;8.50;100179.00;;;;4840878;29;20061;-67
2024/02/18 02:02:01;;;;;;;14.00;7.70;;;;;8.50;100181.00;;;;4841288;29;20057;-66
2024/02/18 02:04:28;;;;;;;10.68;7.25;;;;;8.40;100184.00;;;;4842250;29;20046;-66
2024/02/18 02:06:58;;;;;;;12.85;7.30;;;;;8.40;100185.00;;;;4842255;29;20385;-66
2024/02/18 02:09:25;;;;;;;11.68;7.50;;;;;8.30;100190.00;;;;4844438;29;20053;-67
2024/02/18 02:11:52;;;;;;;9.65;7.25;;;;;8.20;100185.00;;;;4841758;29;20061;-66
2024/02/18 02:14:18;;;;;;;12.48;8.15;;;;;8.20;100179.00;;;;4840956;29;20078;-66
2024/02/18 02:16:45;;;;;;;11.27;7.97;;;;;8.10;100177.00;;;;4840953;29;20144;-66
2024/02/18 02:19:12;;;;;;;12.55;8.13;;;;;8.10;100166.00;;;;4840512;29;20137;-66
2024/02/18 02:21:39;;;;;;;16.25;7.63;;;;;8.10;100170.00;;;;4841854;29;20446;-66
2024/02/18 02:24:05;;;;;;;10.10;7.72;;;;;8.10;100168.00;;;;4842095;29;20045;-66
2024/02/18 02:26:37;;;;;;;11.20;7.53;;;;;8.10;100164.00;;;;4856091;29;20085;-66
2024/02/18 02:29:07;;;;;;;10.75;7.13;;;;;8.10;100162.00;;;;4841803;29;20054;-67
2024/02/18 02:31:34;;;;;;;12.68;7.75;;;;;8.10;100160.00;;;;4841914;29;20121;-67
2024/02/18 02:34:01;;;;;;;11.55;7.65;;;;;8.10;100168.00;;;;4856135;29;20473;-66
2024/02/18 02:36:27;;;;;;;11.80;7.60;;;;;8.20;100169.00;;;;4840912;29;20066;-67
2024/02/18 02:38:54;;;;;;;10.65;7.63;;;;;8.30;100164.00;;;;4852067;29;20053;-66
2024/02/18 02:41:24;;;;;;;10.10;7.80;;;;;8.20;100158.00;;;;4848816;29;20042;-67
2024/02/18 02:43:50;;;;;;;13.35;8.57;;;;;7.90;100149.00;;;;4856273;29;20086;-66
2024/02/18 02:46:17;;;;;;;11.05;7.72;;;;;7.60;100149.00;;;;4840704;29;20515;-67
2024/02/18 02:48:44;;;;;;;10.35;7.55;;;;;7.60;100147.00;;;;4840404;29;20161;-67
2024/02/18 02:51:10;;;;;;;10.45;7.32;;;;;7.50;100147.00;;;;4856097;29;20137;-66
2024/02/18 02:53:37;;;;;;;13.68;8.32;;;;;7.60;100147.00;;;;4840759;29;20057;-67
2024/02/18 02:56:05;;;;;;;18.02;10.93;;;;;7.70;100146.00;;;;4841724;29;20129;-67
2024/02/18 02:58:32;;;;;;;22.20;11.50;;;;;7.70;100149.00;;;;4841397;29;20042;-67
2024/02/18 03:00:58;;;;;;;26.70;12.57;;;;;7.60;100149.00;;;;4840557;29;20121;-67
2024/02/18 03:03:25;;;;;;;38.08;14.25;;;;;7.60;100143.00;;;;4855889;29;20497;-67
2024/02/18 03:05:52;;;;;;;67.63;14.65;;;;;7.80;100146.00;;;;4841813;29;20089;-68
2024/02/18 03:08:19;;;;;;;26.88;13.35;;;;;7.90;100142.00;;;;4860287;29;20038;-64
2024/02/18 03:10:45;;;;;;;32.38;14.15;;;;;8.10;100147.00;;;;4844557;29;20141;-67
2024/02/18 03:13:12;;;;;;;48.78;14.43;;;;;8.10;100136.00;;;;4860547;29;20050;-68
2024/02/18 03:15:39;;;;;;;29.65;13.15;;;;;8.20;100137.00;;;;4846265;29;20050;-68
2024/02/18 03:18:05;;;;;;;31.80;13.88;;;;;8.20;100130.00;;;;4845918;29;20575;-68
2024/02/18 03:20:32;;;;;;;23.23;13.10;;;;;8.20;100129.00;;;;4829575;29;20114;-68
2024/02/18 03:22:59;;;;;;;47.47;13.40;;;;;8.00;100137.00;;;;4859736;29;20576;-68
2024/02/18 03:25:26;;;;;;;21.38;12.77;;;;;7.80;100125.00;;;;4844745;29;20133;-68
2024/02/18 03:27:53;;;;;;;41.40;12.95;;;;;7.90;100123.00;;;;4829447;29;20076;-68
2024/02/18 03:30:20;;;;;;;23.73;13.68;;;;;7.90;100120.00;;;;4843877;29;20415;-67
2024/02/18 03:32:47;;;;;;;40.10;13.30;;;;;7.80;100123.00;;;;4845199;29;20050;-67
2024/02/18 03:35:14;;;;;;;58.33;14.05;;;;;7.70;100115.00;;;;4845228;29;20046;-67
2024/02/18 03:37:41;;;;;;;36.33;14.00;;;;;7.60;100107.00;;;;4846923;29;20057;-68
2024/02/18 03:40:08;;;;;;;28.15;13.82;;;;;7.40;100117.00;;;;4855395;29;20078;-68
2024/02/18 03:42:35;;;;;;;35.17;14.02;;;;;7.30;100105.00;;;;4846653;29;20065;-67
2024/02/18 03:45:02;;;;;;;67.43;14.90;;;;;7.30;100104.00;;;;4845513;29;20050;-67
2024/02/18 03:47:28;;;;;;;19.55;12.95;;;;;7.30;100109.00;;;;4845198;29;20461;-67
2024/02/18 03:49:55;;;;;;;19.30;12.73;;;;;7.30;100101.00;;;;4843780;29;20062;-67
2024/02/18 03:52:22;;;;;;;20.92;13.27;;;;;7.30;100096.00;;;;4843824;29;20056;-66
2024/02/18 03:54:48;;;;;;;21.70;13.02;;;;;7.30;100092.00;;;;4845193;29;20058;-66
2024/02/18 03:57:15;;;;;;;19.85;12.63;;;;;7.40;100094.00;;;;4844926;29;20042;-66
2024/02/18 03:59:42;;;;;;;18.17;11.50;;;;;7.50;100096.00;;;;4843535;29;20081;-66
2024/02/18 04:02:08;;;;;;;22.90;12.32;;;;;7.60;100105.00;;;;4843947;29;20046;-66
2024/02/18 04:04:35;;;;;;;22.83;12.20;;;;;7.70;100109.00;;;;4844651;29;20046;-66
2024/02/18 04:07:02;;;;;;;20.77;12.95;;;;;7.80;100111.00;;;;4843882;29;20045;-66
2024/02/18 04:09:28;;;;;;;22.95;12.90;;;;;7.80;100105.00;;;;4855237;29;20124;-67
2024/02/18 04:11:55;;;;;;;30.42;13.80;;;;;7.80;100098.00;;;;4856620;29;20057;-68
2024/02/18 04:14:22;;;;;;;20.73;11.43;;;;;7.90;100111.00;;;;4845076;29;20498;-66
2024/02/18 04:16:49;;;;;;;19.20;11.88;;;;;7.90;100108.00;;;;4843400;29;20061;-67
2024/02/18 04:19:15;;;;;;;18.25;11.98;;;;;7.90;100106.00;;;;4858163;29;20507;-66
2024/02/18 04:21:42;;;;;;;15.88;11.48;;;;;8.00;100100.00;;;;4843621;29;20041;-66
2024/02/18 04:24:09;;;;;;;19.50;12.02;;;;;8.00;100104.00;;;;4858935;29;20476;-66
2024/02/18 04:26:36;;;;;;;16.98;11.43;;;;;8.00;100105.00;;;;4858863;29;20058;-66
2024/02/18 04:29:03;;;;;;;16.98;11.43;;;;;7.90;100107.00;;;;4843347;29;20524;-67
2024/02/18 04:31:29;;;;;;;15.88;10.48;;;;;7.90;100093.00;;;;4843307;29;20048;-67
2024/02/18 04:33:56;;;;;;;16.40;11.27;;;;;8.00;100101.00;;;;4845414;29;20114;-67
2024/02/18 04:36:23;;;;;;;17.15;12.05;;;;;8.00;100094.00;;;;4843592;29;20072;-67
2024/02/18 04:38:49;;;;;;;14.55;10.57;;;;;7.90;100085.00;;;;4848331;29;20077;-67
2024/02/18 04:41:16;;;;;;;14.35;10.43;;;;;7.70;100087.00;;;;4858925;29;20497;-67
2024/02/18 04:43:43;;;;;;;13.35;9.65;;;;;7.50;100083.00;;;;4843510;29;20045;-67
2024/02/18 04:46:12;;;;;;;14.52;10.20;;;;;7.50;100081.00;;;;4828175;29;20471;-67
2024/02/18 04:48:39;;;;;;;14.18;10.13;;;;;7.50;100083.00;;;;4842875;29;20046;-67
2024/02/18 04:51:06;;;;;;;15.43;10.27;;;;;7.60;100085.00;;;;4844606;29;20038;-67
2024/02/18 04:53:33;;;;;;;13.70;9.77;;;;;7.60;100080.00;;;;4842831;29;20093;-67
2024/02/18 04:55:59;;;;;;;15.32;10.32;;;;;7.70;100075.00;;;;4842965;29;20085;-66
2024/02/18 04:58:27;;;;;;;15.82;10.13;;;;;7.80;100077.00;;;;4843766;29;20133;-67
2024/02/18 05:00:53;;;;;;;14.57;10.10;;;;;7.80;100078.00;;;;4827520;29;20057;-67
2024/02/18 05:03:21;;;;;;;17.05;11.02;;;;;7.80;100080.00;;;;4844005;29;20128;-67
2024/02/18 05:05:48;;;;;;;14.25;10.10;;;;;7.70;100073.00;;;;4843655;29;20133;-67
2024/02/18 05:08:14;;;;;;;20.85;9.90;;;;;7.60;100073.00;;;;4847529;29;20046;-67
2024/02/18 05:10:41;;;;;;;34.47;11.90;;;;;7.50;100068.00;;;;4841975;29;20058;-67
2024/02/18 05:13:07;;;;;;;17.52;11.32;;;;;7.50;100060.00;;;;4843488;29;20474;-67
2024/02/18 05:15:34;;;;;;;17.85;11.95;;;;;7.40;100066.00;;;;4843436;29;20642;-67
2024/02/18 05:18:01;;;;;;;18.25;10.68;;;;;7.40;100059.00;;;;4843459;29;20061;-67
2024/02/18 05:20:27;;;;;;;17.25;11.10;;;;;7.30;100058.00;;;;4857959;29;20097;-67
2024/02/18 05:22:54;;;;;;;18.08;10.75;;;;;7.30;100056.00;;;;4844381;29;20046;-67
2024/02/18 05:25:21;;;;;;;17.02;11.10;;;;;7.30;100049.00;;;;4846581;29;20088;-67
2024/02/18 05:27:47;;;;;;;22.92;9.85;;;;;7.40;100048.00;;;;4845547;29;20103;-67
2024/02/18 05:30:15;;;;;;;37.67;9.60;;;;;7.30;100046.00;;;;4845680;29;20061;-67
2024/02/18 05:32:42;;;;;;;31.60;10.93;;;;;7.30;100051.00;;;;4846146;29;20083;-66
2024/02/18 05:35:09;;;;;;;18.15;9.18;;;;;7.20;100046.00;;;;4845567;29;20073;-67
2024/02/18 05:37:38;;;;;;;18.33;9.93;;;;;7.10;100040.00;;;;4846216;29;20054;-67
2024/02/18 05:40:06;;;;;;;23.45;9.25;;;;;7.20;100038.00;;;;4845771;29;20503;-67
2024/02/18 05:42:33;;;;;;;26.77;9.95;;;;;7.30;100043.00;;;;4844704;29;20054;-67
2024/02/18 05:44:59;;;;;;;63.25;11.40;;;;;7.20;100048.00;;;;4846165;29;20050;-67
2024/02/18 05:47:26;;;;;;;28.17;9.98;;;;;7.20;100039.00;;;;4847136;29;20106;-67
2024/02/18 05:49:52;;;;;;;101.10;12.82;;;;;7.20;100026.00;;;;4845885;29;20050;-66
2024/02/18 05:52:19;;;;;;;54.85;10.35;;;;;7.10;100040.00;;;;4847182;29;20049;-67
2024/02/18 05:54:46;;;;;;;17.35;9.35;;;;;7.10;100030.00;;;;4847046;29;20491;-67
2024/02/18 05:57:12;;;;;;;40.42;9.88;;;;;7.20;100033.00;;;;4830648;29;20148;-67
2024/02/18 05:59:39;;;;;;;33.35;10.30;;;;;7.10;100028.00;;;;4859954;29;20062;-66
2024/02/18 06:02:06;;;;;;;42.83;11.55;;;;;7.10;100025.00;;;;4844449;29;20129;-67
2024/02/18 06:04:32;;;;;;;19.50;8.65;;;;;7.10;100023.00;;;;4843854;29;20056;-67
2024/02/18 06:06:59;;;;;;;19.17;8.63;;;;;7.00;100026.00;;;;4845370;29;20057;-66
2024/02/18 06:09:25;;;;;;;11.27;8.07;;;;;7.00;100016.00;;;;4848145;29;20038;-67
2024/02/18 06:11:52;;;;;;;10.63;7.88;;;;;7.10;100022.00;;;;4846951;29;20050;-67
2024/02/18 06:14:20;;;;;;;14.35;9.57;;;;;7.10;100016.00;;;;4847208;29;20081;-67
2024/02/18 06:16:47;;;;;;;13.25;8.57;;;;;7.20;100009.00;;;;4846934;29;20148;-67
2024/02/18 06:19:13;;;;;;;14.90;8.80;;;;;7.00;100005.00;;;;4862329;29;20507;-67
2024/02/18 06:21:43;;;;;;;17.65;10.98;;;;;6.70;99996.00;;;;4832256;29;20075;-67
2024/02/18 06:24:10;;;;;;;18.92;11.77;;;;;6.70;99996.00;;;;4860737;29;20049;-67
2024/02/18 06:26:40;;;;;;;19.58;12.43;;;;;6.80;99990.00;;;;4846141;29;20141;-67
2024/02/18 06:29:07;;;;;;;18.67;10.05;;;;;6.70;99999.00;;;;4846144;29;20073;-68
2024/02/18 06:31:34;;;;;;;18.55;11.85;;;;;6.90;100011.00;;;;4847893;29;20057;-69
2024/02/18 06:34:01;;;;;;;14.07;9.20;;;;;7.00;100006.00;;;;4847027;29;20060;-68
2024/02/18 06:36:28;;;;;;;13.45;9.52;;;;;6.90;100008.00;;;;4846192;29;20088;-68
2024/02/18 06:38:55;;;;;;;14.65;9.70;;;;;7.00;100019.00;;;;4840185;29;20144;-69
2024/02/18 06:41:22;;;;;;;14.05;9.02;;;;;7.00;100004.00;;;;4847919;29;20075;-67
2024/02/18 06:43:48;;;;;;;12.20;8.35;;;;;6.90;100007.00;;;;4831652;29;20123;-68
2024/02/18 06:46:15;;;;;;;13.55;7.90;;;;;6.80;99998.00;;;;4846613;29;20088;-67
2024/02/18 06:48:41;;;;;;;13.35;9.68;;;;;6.90;100004.00;;;;4847915;29;20053;-67
2024/02/18 06:51:08;;;;;;;13.25;8.57;;;;;6.90;99994.00;;;;4854654;29;20050;-68
2024/02/18 06:53:35;;;;;;;13.27;8.88;;;;;6.90;99991.00;;;;4854145;29;20049;-68
2024/02/18 06:56:01;;;;;;;12.55;8.38;;;;;7.10;99997.00;;;;4854261;29;20058;-69
2024/02/18 06:58:28;;;;;;;13.27;9.07;;;;;7.10;99993.00;;;;4853308;29;20042;-69
2024/02/18 07:00:55;;;;;;;11.40;8.00;;;;;7.00;99986.00;;;;4870003;29;20079;-67
2024/02/18 07:03:23;;;;;;;12.00;8.60;;;;;7.00;99988.00;;;;4858133;29;20058;-67
2024/02/18 07:05:49;;;;;;;14.27;9.48;;;;;6.90;99985.00;;;;4857813;29;20049;-67
2024/02/18 07:08:16;;;;;;;11.85;8.48;;;;;7.10;99985.00;;;;4864098;29;20067;-68
2024/02/18 07:10:43;;;;;;;12.43;8.77;;;;;7.20;99986.00;;;;4860411;29;20080;-67
2024/02/18 07:13:09;;;;;;;11.85;8.77;;;;;7.30;99985.00;;;;4861388;29;20079;-67
2024/02/18 07:15:36;;;;;;;12.80;9.05;;;;;7.30;99988.00;;;;4860726;29;20054;-67
2024/02/18 07:18:04;;;;;;;12.02;9.25;;;;;7.30;99990.00;;;;4860628;29;20128;-68
2024/02/18 07:20:31;;;;;;;10.77;8.32;;;;;7.40;99990.00;;;;4873202;29;20058;-67
2024/02/18 07:22:59;;;;;;;12.48;9.02;;;;;7.50;99987.00;;;;4855452;29;20070;-67
2024/02/18 07:25:26;;;;;;;13.60;9.30;;;;;7.60;99991.00;;;;4856857;29;20054;-67
2024/02/18 07:27:52;;;;;;;12.48;9.00;;;;;7.60;99989.00;;;;4857660;29;20054;-67
2024/02/18 07:30:19;;;;;;;13.35;9.38;;;;;7.60;99992.00;;;;4853901;29;20096;-67
2024/02/18 07:32:45;;;;;;;12.80;9.75;;;;;7.60;99994.00;;;;4852949;29;20118;-67
2024/02/18 07:35:12;;;;;;;16.30;10.15;;;;;7.70;99988.00;;;;4851741;29;20050;-68
2024/02/18 07:37:39;;;;;;;16.40;10.80;;;;;7.80;99985.00;;;;4849396;29;20173;-68
2024/02/18 07:40:06;;;;;;;15.95;9.48;;;;;7.90;99986.00;;;;4864683;29;20050;-68
2024/02/18 07:42:32;;;;;;;16.67;10.38;;;;;7.90;99981.00;;;;4863415;29;20144;-68
2024/02/18 07:44:59;;;;;;;15.75;10.15;;;;;8.00;99978.00;;;;4848582;29;20061;-67
2024/02/18 07:47:26;;;;;;;15.90;11.60;;;;;8.10;99980.00;;;;4848829;29;20085;-67
2024/02/18 07:49:52;;;;;;;14.75;9.77;;;;;8.10;99981.00;;;;4847962;29;20046;-67
2024/02/18 07:52:19;;;;;;;21.23;13.23;;;;;8.10;99979.00;;;;4833555;29;20046;-68
2024/02/18 07:54:46;;;;;;;22.40;15.70;;;;;8.30;99986.00;;;;4865191;29;20088;-68
2024/02/18 07:57:12;;;;;;;21.55;11.25;;;;;8.40;99980.00;;;;4867028;29;20091;-67
2024/02/18 07:59:39;;;;;;;20.05;11.70;;;;;8.50;99980.00;;;;4852168;29;20075;-69
2024/02/18 08:02:06;;;;;;;20.15;12.27;;;;;8.50;99971.00;;;;4853091;29;20128;-68
2024/02/18 08:04:32;;;;;;;35.38;22.70;;;;;8.60;99974.00;;;;4853429;29;20118;-68
2024/02/18 08:06:59;;;;;;;19.58;12.68;;;;;8.60;99982.00;;;;4852462;29;20104;-68
2024/02/18 08:09:26;;;;;;;16.55;11.35;;;;;8.60;99975.00;;;;4850192;29;20077;-68
2024/02/18 08:11:53;;;;;;;18.33;11.48;;;;;8.70;99962.00;;;;4859863;29;20072;-68
2024/02/18 08:14:20;;;;;;;17.58;10.13;;;;;8.70;99968.00;;;;4847693;29;20518;-68
2024/02/18 08:16:46;;;;;;;14.93;9.95;;;;;8.70;99962.00;;;;4861500;29;20050;-70
2024/02/18 08:19:13;;;;;;;21.60;14.93;;;;;8.80;99969.00;;;;4845749;29;20049;-69
2024/02/18 08:21:40;;;;;;;15.68;11.63;;;;;8.80;99964.00;;;;4859747;29;20419;-68
2024/02/18 08:24:07;;;;;;;17.00;11.30;;;;;8.80;99952.00;;;;4845119;29;20054;-68
2024/02/18 08:26:34;;;;;;;16.73;11.50;;;;;8.80;99949.00;;;;4858935;29;20499;-68
2024/02/18 08:29:00;;;;;;;17.60;11.40;;;;;8.90;99952.00;;;;4845338;29;20088;-68
2024/02/18 08:31:27;;;;;;;23.83;12.98;;;;;8.90;99955.00;;;;4843845;29;20092;-69
2024/02/18 08:33:53;;;;;;;31.67;16.50;;;;;9.00;99956.00;;;;4844533;29;20583;-69
2024/02/18 08:36:20;;;;;;;31.20;16.98;;;;;8.90;99949.00;;;;4858682;29;20518;-68
2024/02/18 08:38:49;;;;;;;54.20;25.50;;;;;8.90;99950.00;;;;4855521;29;20077;-68
2024/02/18 08:41:16;;;;;;;27.75;15.75;;;;;9.10;99950.00;;;;4836150;29;20267;-68
2024/02/18 08:43:43;;;;;;;49.53;27.98;;;;;9.10;99946.00;;;;4843102;29;20093;-67
2024/02/18 08:46:09;;;;;;;36.53;21.30;;;;;9.10;99943.00;;;;4858313;29;20081;-68
2024/02/18 08:48:37;;;;;;;48.22;25.00;;;;;9.10;99945.00;;;;4843026;29;20046;-68
2024/02/18 08:51:06;;;;;;;74.20;54.15;;;;;9.20;99942.00;;;;4843021;29;20381;-68
2024/02/18 08:53:33;;;;;;;36.97;25.35;;;;;9.10;99932.00;;;;4844165;29;20094;-68
2024/02/18 08:55:59;;;;;;;21.83;15.27;;;;;9.20;99927.00;;;;4858176;29;20508;-67
2024/02/18 08:58:26;;;;;;;36.88;19.95;;;;;9.30;99924.00;;;;4843434;29;20073;-67
2024/02/18 09:00:53;;;;;;;18.38;12.75;;;;;9.40;99921.00;;;;4842654;29;20106;-68
2024/02/18 09:03:20;;;;;;;35.20;18.42;;;;;9.50;99917.00;;;;4844113;29;20042;-67
2024/02/18 09:05:47;;;;;;;26.58;18.52;;;;;9.60;99912.00;;;;4842397;29;20053;-67
2024/02/18 09:08:13;;;;;;;16.55;12.02;;;;;9.60;99906.00;;;;4845680;29;20054;-67
2024/02/18 09:10:40;;;;;;;17.85;13.43;;;;;9.60;99903.00;;;;4849560;29;20049;-68
2024/02/18 09:13:06;;;;;;;17.65;12.02;;;;;9.80;99902.00;;;;4843019;29;20572;-68
2024/02/18 09:15:33;;;;;;;17.08;11.02;;;;;9.90;99905.00;;;;4842294;29;20511;-66
2024/02/18 09:18:00;;;;;;;15.18;10.07;;;;;10.00;99909.00;;;;4842381;29;20054;-67
2024/02/18 09:20:28;;;;;;;14.27;9.50;;;;;10.20;99905.00;;;;4827500;29;20145;-67
2024/02/18 09:22:56;;;;;;;17.80;12.20;;;;;10.30;99900.00;;;;4843317;29;20061;-67
2024/02/18 09:25:22;;;;;;;50.80;30.30;;;;;10.30;99902.00;;;;4827230;29;20057;-68
2024/02/18 09:27:49;;;;;;;20.40;13.05;;;;;10.50;99903.00;;;;4843340;29;20053;-68
2024/02/18 09:30:16;;;;;;;44.90;24.30;;;;;10.70;99907.00;;;;4841870;29;20049;-68
2024/02/18 09:32:44;;;;;;;16.77;11.20;;;;;11.00;99902.00;;;;4857036;29;20050;-67
2024/02/18 09:35:12;;;;;;;15.40;9.77;;;;;11.20;99902.00;;;;4843359;29;20415;-68
2024/02/18 09:37:39;;;;;;;41.53;24.27;;;;;11.50;99901.00;;;;4845497;29;20088;-69
2024/02/18 09:40:08;;;;;;;16.35;12.32;;;;;11.60;99897.00;;;;4850566;29;20050;-68
2024/02/18 09:42:41;;;;;;;10.80;8.18;;;;;11.70;99897.00;;;;4856974;29;20042;-68
2024/02/18 09:45:11;;;;;;;20.88;14.38;;;;;11.80;99893.00;;;;4842029;29;20050;-68
2024/02/18 09:47:42;;;;;;;12.55;9.48;;;;;12.00;99892.00;;;;4841559;29;20038;-68
2024/02/18 09:50:09;;;;;;;10.02;6.72;;;;;12.10;99879.00;;;;4841808;29;20045;-68
2024/02/18 09:52:40;;;;;;;11.70;8.05;;;;;12.20;99876.00;;;;4841348;29;20396;-69
2024/02/18 09:55:10;;;;;;;12.35;7.53;;;;;12.30;99872.00;;;;4843154;29;20056;-69
2024/02/18 09:57:41;;;;;;;9.55;7.63;;;;;12.40;99866.00;;;;4841530;29;20073;-70
2024/02/18 10:00:11;;;;;;;7.85;5.90;;;;;12.40;99868.00;;;;4856429;29;20049;-72
2024/02/18 10:02:38;;;;;;;8.95;6.22;;;;;12.40;99867.00;;;;4841539;29;20046;-72
2024/02/18 10:05:10;;;;;;;8.82;5.80;;;;;12.30;99863.00;;;;4827045;29;20136;-72
2024/02/18 10:07:37;;;;;;;8.05;6.10;;;;;12.30;99858.00;;;;4841321;29;20058;-71
2024/02/18 10:10:07;;;;;;;9.98;6.05;;;;;12.20;99862.00;;;;4841116;29;20057;-71
2024/02/18 10:12:34;;;;;;;10.40;6.00;;;;;12.20;99860.00;;;;4826058;29;20057;-72
2024/02/18 10:15:03;;;;;;;7.32;6.03;;;;;12.30;99857.00;;;;4842594;29;20141;-70
2024/02/18 10:17:31;;;;;;;8.32;6.15;;;;;12.30;99866.00;;;;4841730;29;20571;-73
2024/02/18 10:19:58;;;;;;;9.45;6.78;;;;;12.40;99851.00;;;;4841863;29;20461;-72
2024/02/18 10:22:26;;;;;;;11.80;7.50;;;;;12.50;99855.00;;;;4856410;29;20523;-71
2024/02/18 10:24:53;;;;;;;11.20;6.75;;;;;12.60;99847.00;;;;4841344;29;20077;-72
2024/02/18 10:27:21;;;;;;;7.90;5.15;;;;;12.70;99850.00;;;;4842150;29;20518;-73
2024/02/18 10:29:48;;;;;;;9.07;6.40;;;;;12.80;99840.00;;;;4842041;29;20124;-71
2024/02/18 10:32:16;;;;;;;13.63;8.43;;;;;12.80;99840.00;;;;4841929;29;20134;-72
2024/02/18 10:34:44;;;;;;;11.70;8.13;;;;;12.90;99846.00;;;;4842017;29;20058;-72
2024/02/18 10:37:36;;;;;;;11.43;7.50;;;;;12.90;99838.00;;;;4842448;29;20057;-72
2024/02/18 10:40:13;;;;;;;10.20;5.25;;;;;12.90;99831.00;;;;4840239;29;20054;-72
2024/02/18 10:42:51;;;;;;;9.80;6.75;;;;;12.90;99827.00;;;;4842383;29;20057;-71
2024/02/18 10:45:21;;;;;;;7.45;4.20;;;;;12.80;99831.00;;;;4842233;29;20480;-71
2024/02/18 10:47:53;;;;;;;9.63;4.78;;;;;12.70;99810.00;;;;4842190;29;20050;-71
2024/02/18 10:50:24;;;;;;;6.80;4.75;;;;;12.70;99806.00;;;;4841755;29;20113;-71
2024/02/18 10:53:11;;;;;;;7.68;4.70;;;;;12.70;99800.00;;;;4841028;29;20046;-71
2024/02/18 10:55:45;;;;;;;7.43;4.82;;;;;12.70;99801.00;;;;4856383;29;20144;-71
2024/02/18 10:58:15;;;;;;;;;;;;;12.60;99792.00;;;;4841333;29;20507;-71
2024/02/18 11:00:45;;;;;;;7.30;4.45;;;;;12.60;99796.00;;;;4842777;29;19931;-71
2024/02/18 11:03:20;;;;;;;7.65;3.75;;;;;12.60;99784.00;;;;4840452;29;20049;-70
2024/02/18 11:05:49;;;;;;;7.97;4.57;;;;;12.70;99782.00;;;;4840705;29;20065;-71
2024/02/18 11:08:17;;;;;;;6.57;4.07;;;;;12.70;99782.00;;;;4846493;29;20384;-72
2024/02/18 11:10:44;;;;;;;8.48;4.38;;;;;12.70;99776.00;;;;4842472;29;20133;-72
2024/02/18 11:13:14;;;;;;;7.50;4.65;;;;;12.70;99761.00;;;;4842050;29;20439;-71
2024/02/18 11:15:42;;;;;;;8.20;4.05;;;;;12.70;99760.00;;;;4841634;29;20128;-70
2024/02/18 11:18:09;;;;;;;7.90;4.50;;;;;12.80;99760.00;;;;4840404;29;20086;-71
2024/02/18 11:20:39;;;;;;;6.57;3.72;;;;;12.80;99749.00;;;;4841445;29;20070;-71
2024/02/18 11:23:06;;;;;;;5.53;3.72;;;;;12.80;99752.00;;;;4841502;29;20075;-71
2024/02/18 11:25:33;;;;;;;5.70;3.92;;;;;12.80;99751.00;;;;4840384;29;20211;-71
2024/02/18 11:28:00;;;;;;;6.55;3.90;;;;;12.80;99754.00;;;;4840307;29;20688;-71
2024/02/18 11:30:27;;;;;;;7.82;3.95;;;;;12.80;99756.00;;;;4842548;29;20050;-71
2024/02/18 11:32:54;;;;;;;6.45;4.30;;;;;12.80;99761.00;;;;4844936;29;20046;-70
2024/02/18 11:35:21;;;;;;;6.85;3.63;;;;;12.80;99748.00;;;;4845303;29;20046;-73
2024/02/18 11:37:48;;;;;;;6.43;3.85;;;;;12.80;99740.00;;;;4863058;29;20054;-72
2024/02/18 11:40:17;;;;;;;4.32;3.35;;;;;12.90;99730.00;;;;4843498;29;20057;-72
2024/02/18 11:42:46;;;;;;;4.88;3.67;;;;;12.90;99730.00;;;;4845061;29;20462;-72
2024/02/18 11:45:14;;;;;;;6.07;4.00;;;;;12.90;99737.00;;;;4843719;29;20137;-71
2024/02/18 11:47:49;;;;;;;6.30;3.50;;;;;13.00;99739.00;;;;4844938;29;20404;-71
2024/02/18 11:50:20;;;;;;;5.70;3.83;;;;;12.90;99740.00;;;;4858520;29;20116;-72
2024/02/18 11:52:47;;;;;;;6.80;3.60;;;;;12.90;99737.00;;;;4843641;29;20516;-72
2024/02/18 11:55:15;;;;;;;6.22;3.40;;;;;13.00;99719.00;;;;4844309;29;20057;-72
2024/02/18 11:57:42;;;;;;;4.88;4.00;;;;;13.00;99723.00;;;;4844571;29;20081;-73
2024/02/18 12:00:10;;;;;;;4.75;3.28;;;;;13.00;99717.00;;;;4845547;29;20073;-71
2024/02/18 12:02:37;;;;;;;8.70;4.72;;;;;13.00;99718.00;;;;4844251;29;20054;-72
2024/02/18 12:05:05;;;;;;;5.82;3.75;;;;;13.00;99733.00;;;;4829397;29;20508;-70
2024/02/18 12:07:36;;;;;;;6.50;3.22;;;;;13.00;99732.00;;;;4846449;29;20056;-71
2024/02/18 12:10:03;;;;;;;8.77;3.35;;;;;13.00;99732.00;;;;4844997;29;20065;-73